createdAt,value
2022-08-08T00:00:50.593Z,6.57
2022-08-08T00:04:07.135Z,6.25
2022-08-08T00:07:28.543Z,6.68
2022-08-08T00:10:28.386Z,6.70
2022-08-08T00:14:16.781Z,6.53
2022-08-08T00:16:41.465Z,6.95
2022-08-08T00:19:46.696Z,6.70
2022-08-08T00:22:43.102Z,6.75
2022-08-08T00:25:39.133Z,6.32
2022-08-08T00:28:47.281Z,7.10
2022-08-08T00:32:29.127Z,6.63
2022-08-08T00:35:23.529Z,6.95
2022-08-08T00:38:32.089Z,6.82
2022-08-08T00:41:54.502Z,7.05
2022-08-08T00:45:21.655Z,6.72
2022-08-08T00:48:34.100Z,6.60
2022-08-08T00:51:57.254Z,7.05
2022-08-08T00:55:05.085Z,6.38
2022-08-08T00:58:04.546Z,6.60
2022-08-08T01:01:02.652Z,7.05
2022-08-08T01:04:02.837Z,6.47
2022-08-08T01:07:06.096Z,6.30
2022-08-08T01:10:17.614Z,6.63
2022-08-08T01:13:43.578Z,6.25
2022-08-08T01:16:57.837Z,6.35
2022-08-08T01:20:21.878Z,6.43
2022-08-08T01:24:02.353Z,6.28
2022-08-08T01:26:48.964Z,7.05
2022-08-08T01:30:03.366Z,7.55
2022-08-08T01:33:27.678Z,6.85
2022-08-08T01:36:48.604Z,6.25
2022-08-08T01:40:14.716Z,6.63
2022-08-08T01:43:06.337Z,6.68
2022-08-08T01:46:32.738Z,6.15
2022-08-08T01:49:46.401Z,5.97
2022-08-08T01:53:05.248Z,6.07
2022-08-08T01:56:30.613Z,5.95
2022-08-08T01:59:37.858Z,6.28
2022-08-08T02:03:04.446Z,6.05
2022-08-08T02:06:02.933Z,6.38
2022-08-08T02:09:17.486Z,6.45
2022-08-08T02:12:43.129Z,6.18
2022-08-08T02:15:34.552Z,6.80
2022-08-08T02:18:43.423Z,6.60
2022-08-08T02:22:09.487Z,6.18
2022-08-08T02:25:47.418Z,6.10
2022-08-08T02:28:48.381Z,6.70
2022-08-08T02:32:05.280Z,6.40
2022-08-08T02:35:08.942Z,5.97
2022-08-08T02:38:52.506Z,6.65
2022-08-08T02:41:58.428Z,7.05
2022-08-08T02:45:53.977Z,6.63
2022-08-08T02:49:02.133Z,7.32
2022-08-08T02:52:32.711Z,6.25
2022-08-08T02:55:37.211Z,7.22
2022-08-08T02:58:42.380Z,6.97
2022-08-08T03:01:47.217Z,6.70
2022-08-08T03:05:04.105Z,7.47
2022-08-08T03:08:34.215Z,7.22
2022-08-08T03:12:02.820Z,7.15
2022-08-08T03:16:01.433Z,7.18
2022-08-08T03:18:48.993Z,7.88
2022-08-08T03:21:54.649Z,7.75
2022-08-08T03:24:46.917Z,7.25
2022-08-08T03:27:41.860Z,7.65
2022-08-08T03:30:30.050Z,8.38
2022-08-08T03:33:54.826Z,6.82
2022-08-08T03:36:27.909Z,6.80
2022-08-08T03:39:17.552Z,7.00
2022-08-08T03:42:26.541Z,6.90
2022-08-08T03:46:06.494Z,6.97
2022-08-08T03:49:09.493Z,7.60
2022-08-08T03:51:51.024Z,7.15
2022-08-08T03:55:02.279Z,7.32
2022-08-08T03:58:34.857Z,7.55
2022-08-08T04:01:23.101Z,7.07
2022-08-08T04:04:09.137Z,7.05
2022-08-08T04:07:01.369Z,7.07
2022-08-08T04:10:00.465Z,7.63
2022-08-08T04:12:54.836Z,7.60
2022-08-08T04:15:54.372Z,6.90
2022-08-08T04:18:48.957Z,7.50
2022-08-08T04:21:41.223Z,7.30
2022-08-08T04:24:32.369Z,7.63
2022-08-08T04:28:02.723Z,7.07
2022-08-08T04:30:36.671Z,7.95
2022-08-08T04:33:41.776Z,8.90
2022-08-08T04:36:29.939Z,7.68
2022-08-08T04:40:04.391Z,8.00
2022-08-08T04:42:26.051Z,7.78
2022-08-08T04:45:12.960Z,7.28
2022-08-08T04:48:00.896Z,7.95
2022-08-08T04:50:51.162Z,7.57
2022-08-08T04:54:37.441Z,7.00
2022-08-08T04:56:48.923Z,8.00
2022-08-08T04:59:42.412Z,7.25
2022-08-08T05:02:30.905Z,7.07
2022-08-08T05:05:44.246Z,7.25
2022-08-08T05:08:26.978Z,7.30
2022-08-08T05:11:24.253Z,6.97
2022-08-08T05:14:16.278Z,7.20
2022-08-08T05:17:10.789Z,7.55
2022-08-08T05:20:09.271Z,7.03
2022-08-08T05:23:00.943Z,6.88
2022-08-08T05:25:51.591Z,7.53
2022-08-08T05:28:56.288Z,7.25
2022-08-08T05:32:04.905Z,8.32
2022-08-08T05:34:53.388Z,6.95
2022-08-08T05:37:58.862Z,7.43
2022-08-08T05:41:04.540Z,7.80
2022-08-08T05:44:03.907Z,8.15
2022-08-08T05:46:53.821Z,7.80
2022-08-08T05:49:57.308Z,7.90
2022-08-08T05:52:47.943Z,9.10
2022-08-08T05:56:07.889Z,12.50
2022-08-08T05:58:53.911Z,7.40
2022-08-08T06:01:57.799Z,11.40
2022-08-08T06:04:54.883Z,9.45
2022-08-08T06:07:47.249Z,9.40
2022-08-08T06:10:38.458Z,16.45
2022-08-08T06:16:27.286Z,8.98
2022-08-08T06:19:33.228Z,8.95
2022-08-08T06:22:36.502Z,9.82
2022-08-08T12:28:55.064Z,1.73
2022-08-08T12:31:54.247Z,1.90
2022-08-08T12:34:43.204Z,2.00
2022-08-08T12:37:41.444Z,2.03
2022-08-08T12:40:59.144Z,2.30
2022-08-08T12:44:00.640Z,2.17
2022-08-08T12:47:00.934Z,1.80
2022-08-08T12:49:55.277Z,1.90
2022-08-08T12:52:42.570Z,2.13
2022-08-08T12:55:56.464Z,1.70
2022-08-08T12:58:51.298Z,1.70
2022-08-08T13:01:38.568Z,1.70
2022-08-08T13:04:32.792Z,1.90
2022-08-08T13:07:19.286Z,2.28
2022-08-08T13:10:32.653Z,1.58
2022-08-08T13:13:35.352Z,1.80
2022-08-08T13:16:25.906Z,1.60
2022-08-08T13:19:17.725Z,1.77
2022-08-08T13:22:04.619Z,2.33
2022-08-08T13:24:53.075Z,2.13
2022-08-08T13:27:39.210Z,2.10
2022-08-08T13:30:28.231Z,2.05
2022-08-08T13:33:18.462Z,2.00
2022-08-08T13:36:06.628Z,2.07
2022-08-08T13:38:52.659Z,2.10
2022-08-08T13:41:43.742Z,2.25
2022-08-08T13:44:36.058Z,2.33
2022-08-08T13:47:25.740Z,2.17
2022-08-08T13:50:38.736Z,1.92
2022-08-08T13:53:31.653Z,2.28
2022-08-08T13:56:41.534Z,2.28
2022-08-08T13:59:39.344Z,2.05
2022-08-08T14:02:32.874Z,2.30
2022-08-08T14:05:28.143Z,2.45
2022-08-08T14:08:16.836Z,2.22
2022-08-08T14:14:08.504Z,2.20
2022-08-08T14:16:55.524Z,2.22
2022-08-08T14:19:57.608Z,2.80
2022-08-08T14:22:50.703Z,2.30
2022-08-08T14:25:46.529Z,2.25
2022-08-08T14:28:50.953Z,2.33
2022-08-08T14:32:08.789Z,2.30
2022-08-08T14:34:57.014Z,2.00
2022-08-08T14:38:00.999Z,2.47
2022-08-08T14:40:49.859Z,1.85
2022-08-08T14:44:09.938Z,1.98
2022-08-08T14:47:01.002Z,1.90
2022-08-08T14:50:06.433Z,1.90
2022-08-08T14:52:57.235Z,1.80
2022-08-08T14:55:43.758Z,2.25
2022-08-08T14:58:31.263Z,2.42
2022-08-08T15:01:23.829Z,2.28
2022-08-08T15:04:14.037Z,2.50
2022-08-08T15:07:00.006Z,2.05
2022-08-08T15:09:51.390Z,1.92
2022-08-08T15:12:39.476Z,2.47
2022-08-08T15:16:02.885Z,2.10
2022-08-08T15:18:35.001Z,2.22
2022-08-08T15:21:21.370Z,1.63
2022-08-08T15:24:12.589Z,2.13
2022-08-08T15:27:12.106Z,3.08
2022-08-08T15:30:08.107Z,2.00
2022-08-08T15:32:58.278Z,2.30
2022-08-08T15:35:44.293Z,2.50
2022-08-08T15:38:30.253Z,2.38
2022-08-08T15:41:16.159Z,2.00
2022-08-08T15:44:02.097Z,2.40
2022-08-08T15:46:50.870Z,2.03
2022-08-08T15:49:40.822Z,2.20
2022-08-08T15:52:26.954Z,2.20
2022-08-08T15:55:13.328Z,2.13
2022-08-08T15:57:59.904Z,2.05
2022-08-08T16:00:47.259Z,1.80
2022-08-08T16:03:36.656Z,2.40
2022-08-08T16:06:28.878Z,1.90
2022-08-08T16:13:08.805Z,2.13
2022-08-08T16:13:15.267Z,2.05
2022-08-08T16:15:32.544Z,2.25
2022-08-08T16:18:19.784Z,2.28
2022-08-08T16:21:20.644Z,2.20
2022-08-08T16:24:12.693Z,2.40
2022-08-08T16:26:58.956Z,2.47
2022-08-08T16:30:13.562Z,2.50
2022-08-08T16:32:51.922Z,2.65
2022-08-08T16:35:37.917Z,3.00
2022-08-08T16:38:26.399Z,2.75
2022-08-08T16:41:21.152Z,2.40
2022-08-08T16:44:12.561Z,2.92
2022-08-08T16:46:59.249Z,3.00
2022-08-08T16:49:47.666Z,2.28
2022-08-08T16:55:00.526Z,2.22
2022-08-08T16:55:52.578Z,2.40
2022-08-08T16:58:42.687Z,2.70
2022-08-08T17:01:31.030Z,3.17
2022-08-08T17:04:21.785Z,2.63
2022-08-08T17:07:08.527Z,2.60
2022-08-08T17:09:56.122Z,2.53
2022-08-08T17:12:47.070Z,2.20
2022-08-08T17:15:47.597Z,2.50
2022-08-08T17:18:41.526Z,2.40
2022-08-08T17:21:36.713Z,2.80
2022-08-08T17:24:30.243Z,2.40
2022-08-08T17:27:17.633Z,2.80
2022-08-08T17:30:08.258Z,2.25
2022-08-08T17:34:36.523Z,2.53
2022-08-08T17:36:10.106Z,2.65
2022-08-08T17:39:05.427Z,2.65
2022-08-08T17:42:05.412Z,2.85
2022-08-08T17:44:52.871Z,2.47
2022-08-08T17:47:40.788Z,3.17
2022-08-08T17:50:27.426Z,2.80
2022-08-08T17:53:13.652Z,2.95
2022-08-08T17:56:06.583Z,3.00
2022-08-08T17:58:54.178Z,2.85
2022-08-08T18:01:58.209Z,2.65
2022-08-08T18:04:50.823Z,3.00
2022-08-08T18:08:02.690Z,2.75
2022-08-08T18:10:43.513Z,2.53
2022-08-08T18:13:29.952Z,2.55
2022-08-08T18:16:23.602Z,2.83
2022-08-08T18:19:13.377Z,3.00
2022-08-08T18:22:02.478Z,2.92
2022-08-08T18:24:51.373Z,3.20
2022-08-08T18:27:38.325Z,3.00
2022-08-08T18:30:29.009Z,3.25
2022-08-08T18:33:36.420Z,2.85
2022-08-08T18:36:23.197Z,3.10
2022-08-08T18:39:11.154Z,2.90
2022-08-08T18:42:03.784Z,2.70
2022-08-08T18:44:55.150Z,2.85
2022-08-08T18:47:42.146Z,3.03
2022-08-08T18:50:28.368Z,2.70
2022-08-08T18:53:14.263Z,2.92
2022-08-08T18:56:02.409Z,3.03
2022-08-08T18:58:49.382Z,3.08
2022-08-08T19:02:28.294Z,3.28
2022-08-08T19:04:43.427Z,3.60
2022-08-08T19:07:33.540Z,3.28
2022-08-08T19:10:25.389Z,3.60
2022-08-08T19:13:20.870Z,3.30
2022-08-08T19:16:18.393Z,3.20
2022-08-08T19:19:09.944Z,3.72
2022-08-08T19:22:00.193Z,3.95
2022-08-08T19:26:00.122Z,3.78
2022-08-08T19:27:57.461Z,3.70
2022-08-08T19:30:51.454Z,3.95
2022-08-08T19:34:04.691Z,3.00
2022-08-08T19:36:59.102Z,3.70
2022-08-08T19:39:46.189Z,3.65
2022-08-08T19:42:37.178Z,3.60
2022-08-08T19:45:59.671Z,3.80
2022-08-08T19:48:31.152Z,4.00
2022-08-08T19:51:25.155Z,3.50
2022-08-08T19:54:20.748Z,4.15
2022-08-08T19:57:08.966Z,4.53
2022-08-08T19:59:55.915Z,4.43
2022-08-08T20:02:41.694Z,4.47
2022-08-08T20:06:14.294Z,4.40
2022-08-08T20:08:35.245Z,4.53
2022-08-08T20:11:22.035Z,4.15
2022-08-08T20:14:13.310Z,3.60
2022-08-08T20:17:14.709Z,4.63
2022-08-08T20:20:19.605Z,3.88
2022-08-08T20:23:12.260Z,4.07
2022-08-08T20:26:02.281Z,4.03
2022-08-08T20:28:51.023Z,4.10
2022-08-08T20:32:07.336Z,4.50
2022-08-08T20:34:47.972Z,4.15
2022-08-08T20:37:53.166Z,4.50
2022-08-08T20:40:41.874Z,5.45
2022-08-08T20:43:43.109Z,5.40
2022-08-08T20:46:30.454Z,4.80
2022-08-08T20:49:16.429Z,4.20
2022-08-08T20:52:03.045Z,4.18
2022-08-08T20:54:49.760Z,3.92
2022-08-08T20:57:43.759Z,4.28
2022-08-08T21:00:36.980Z,4.53
2022-08-08T21:03:29.854Z,4.32
2022-08-08T21:06:15.958Z,3.92
2022-08-08T21:09:02.091Z,4.20
2022-08-08T21:11:51.741Z,4.32
2022-08-08T21:14:38.319Z,3.60
2022-08-08T21:17:25.765Z,4.13
2022-08-08T21:20:13.741Z,4.18
2022-08-08T21:22:59.807Z,4.07
2022-08-08T21:25:49.148Z,4.85
2022-08-08T21:28:36.408Z,4.32
2022-08-08T21:31:23.820Z,4.82
2022-08-08T21:34:30.112Z,6.22
2022-08-08T21:37:19.080Z,6.70
2022-08-08T21:40:07.849Z,5.20
2022-08-08T21:42:54.253Z,5.82
2022-08-08T21:48:02.124Z,5.00
2022-08-08T21:48:51.631Z,4.93
2022-08-08T21:54:32.272Z,5.13
2022-08-08T21:55:02.356Z,4.32
2022-08-08T21:58:04.222Z,3.80
2022-08-08T22:00:54.913Z,4.30
2022-08-08T22:03:41.708Z,4.70
2022-08-08T22:06:38.047Z,4.00
2022-08-08T22:09:27.094Z,5.43
2022-08-08T22:12:27.277Z,4.25
2022-08-08T22:15:13.257Z,4.63
2022-08-08T22:18:01.453Z,4.72
2022-08-08T22:20:48.165Z,4.88
2022-08-08T22:23:35.969Z,5.07
2022-08-08T22:26:29.972Z,4.35
2022-08-08T22:30:02.273Z,4.10
2022-08-08T22:32:22.889Z,4.00
2022-08-08T22:35:08.997Z,4.00
2022-08-08T22:37:58.261Z,3.72
2022-08-08T22:40:48.224Z,4.13
2022-08-08T22:44:02.785Z,3.80
2022-08-08T22:46:41.433Z,3.95
2022-08-08T22:49:31.032Z,4.10
2022-08-08T22:52:25.960Z,4.32
2022-08-08T22:55:12.140Z,4.20
2022-08-08T22:57:57.952Z,3.40
2022-08-08T23:00:54.424Z,4.50
2022-08-08T23:03:53.498Z,4.38
2022-08-08T23:06:40.821Z,4.07
2022-08-08T23:09:30.743Z,3.83
2022-08-08T23:12:40.004Z,4.25
2022-08-08T23:16:39.188Z,3.58
2022-08-08T23:18:29.101Z,3.45
2022-08-08T23:21:15.669Z,3.85
2022-08-08T23:24:01.727Z,3.50
2022-08-08T23:26:55.613Z,3.95
2022-08-08T23:29:42.949Z,3.47
2022-08-08T23:32:41.667Z,3.35
2022-08-08T23:35:34.457Z,3.63
2022-08-08T23:38:41.594Z,3.63
2022-08-08T23:41:30.934Z,4.18
2022-08-08T23:44:32.455Z,3.70
2022-08-08T23:49:00.670Z,3.72
2022-08-08T23:50:30.685Z,3.63
2022-08-08T23:56:31.930Z,3.72
2022-08-08T23:59:19.837Z,3.55
